NCAR-RAP Real-Time Weather Data

Output produced by METARs form (23 June 2018  19:36 UTC)
found at http://weather.rap.ucar.edu/surface/
 
ROIG 231100Z 17010KT 9999 FEW008 SCT012 BKN/// 28/28 Q1009
ROIG 231000Z 18010KT 9999 FEW012 BKN/// 28/27 Q1009
ROIG 230900Z 19011KT 9999 FEW011 BKN/// 29/27 Q1008
ROIG 230800Z 19012KT 9999 FEW011 SCT017 BKN/// 30/27 Q1008
ROIG 230700Z 20012KT 9999 FEW011 SCT016 BKN/// 30/28 Q1008
ROIG 230600Z 20013KT 9999 FEW011 BKN018 31/28 Q1008
ROIG 230524Z 21015KT 9999 FEW011 SCT018 BKN/// 32/29 Q1008 RMK 1CU011 3CU018 A2979
ROIG 230500Z 20014KT 9999 FEW011 BKN019 BKN/// 30/28 Q1008
ROIG 230400Z 21014KT 9999 FEW011 BKN020 BKN/// 31/28 Q1009
ROIG 230300Z 20014KT 9999 SCT010 BKN017 BKN/// 31/28 Q1009
ROIG 230200Z 20014G24KT 9999 SCT010 BKN016 BKN/// 29/27 Q1009
ROIG 230100Z 19017KT 9999 FEW010 SCT016 BKN/// 30/27 Q1009
ROIG 230000Z 20013KT 160V220 9999 FEW009 BKN015 BKN/// 29/28 Q1009
ROIG 222300Z 20013KT 9999 SCT010 BKN015 BKN/// 29/27 Q1009
ROIG 222200Z 20014KT 9999 FEW010 BKN015 BKN/// 28/27 Q1009
ROIG 222100Z 20011KT 9999 FEW010 SCT015 BKN/// 27/27 Q1008
ROIG 221100Z 22008KT 9999 FEW012 28/27 Q1008
ROIG 221000Z 22011KT 9999 FEW012 SCT/// 28/27 Q1008
ROIG 220900Z 22010KT 9999 FEW012 SCT020 29/27 Q1007
ROIG 220800Z 23013KT 9999 FEW012 SCT020 30/27 Q1007
ROIG 220700Z 22015KT 9999 FEW012 BKN020 30/27 Q1007
ROIG 220600Z 21016KT 9999 FEW010 BKN015 30/28 Q1007
ROIG 220500Z 21017KT 9999 FEW010 BKN016 31/28 Q1007
ROIG 220400Z 21016KT 9999 FEW009 SCT017 31/28 Q1007
ROIG 220300Z 21015KT 9999 FEW010 SCT017 BKN/// 31/28 Q1007
ROIG 220200Z 20014KT 9999 FEW008 SCT016 BKN050 31/28 Q1008
ROIG 220100Z 19013KT 9999 FEW008 SCT015 FEW025TCU BKN035 30/28 Q1008
ROIG 220010Z 21009KT 9999 -SHRA FEW007 SCT010 BKN015 FEW025TCU 28/28 Q1008 RMK 1ST007 3CU010 5CU015 1TCU025 A2979 TCU 10KM NE MOV NE
ROIG 220000Z 21009KT 9999 R04/0400VP1800D SHRA FEW007 SCT010 BKN015 FEW025TCU 28/27 Q1008
ROIG 212300Z 19010KT 9999 FEW007 SCT010 BKN025 28/27 Q1008
ROIG 212200Z 18008KT 9999 FEW006 SCT009 BKN015 28/27 Q1008
ROIG 212100Z 19009KT 9999 FEW006 SCT010 BKN/// 27/27 Q1007
ROIG 211100Z 16009KT 9999 VCSH FEW007 SCT010 BKN025 28/27 Q1006
ROIG 211000Z 18008KT 9999 FEW009 SCT020 BKN040 28/27 Q1006
ROIG 210900Z 17010KT 9999 FEW009 SCT020 BKN040 29/28 Q1006
ROIG 210800Z 18010KT 9999 FEW009 SCT030 29/28 Q1006